createdAt,value
2018-06-15T04:02:42.085Z,6.97
2018-06-15T04:05:31.212Z,7.47
2018-06-15T04:08:03.489Z,7.63
2018-06-15T04:10:33.055Z,8.07
2018-06-15T04:13:14.972Z,7.03
2018-06-15T04:15:43.689Z,7.50
2018-06-15T04:18:11.073Z,8.27
2018-06-15T04:20:40.690Z,7.47
2018-06-15T04:23:11.240Z,7.10
2018-06-15T04:25:38.218Z,7.83
2018-06-15T04:28:05.478Z,7.77
2018-06-15T04:30:32.977Z,7.60
2018-06-15T04:33:00.415Z,7.63
2018-06-15T04:35:30.164Z,8.70
2018-06-15T04:38:01.557Z,8.43
2018-06-15T04:40:32.937Z,8.67
2018-06-15T04:43:05.756Z,8.53
2018-06-15T04:45:35.355Z,9.63
2018-06-15T04:48:02.322Z,9.63
2018-06-15T04:50:29.305Z,10.17
2018-06-15T04:53:12.262Z,8.90
2018-06-15T04:55:39.256Z,9.60
2018-06-15T04:58:06.253Z,9.40
2018-06-15T05:00:33.245Z,8.80
2018-06-15T05:03:00.213Z,8.80
2018-06-15T05:05:27.895Z,9.40
2018-06-15T05:07:58.784Z,8.50
2018-06-15T05:10:26.777Z,8.20
2018-06-15T05:12:54.801Z,7.83
2018-06-15T05:15:23.995Z,8.03
2018-06-15T05:17:52.619Z,8.40
2018-06-15T05:20:22.325Z,8.77
2018-06-15T05:22:52.364Z,7.43
2018-06-15T05:25:22.874Z,7.30
2018-06-15T05:27:52.604Z,8.20
2018-06-15T05:30:22.617Z,7.77
2018-06-15T05:32:49.625Z,8.17
2018-06-15T05:35:20.246Z,7.80
2018-06-15T05:37:50.915Z,7.77
2018-06-15T05:40:20.185Z,7.63
2018-06-15T05:42:51.938Z,7.87
2018-06-15T05:45:19.640Z,7.40
2018-06-15T05:47:51.601Z,8.07
2018-06-15T05:50:21.384Z,8.13
2018-06-15T05:52:51.109Z,8.30
2018-06-15T05:55:18.117Z,7.60
2018-06-15T05:57:45.098Z,8.33
2018-06-15T06:00:12.078Z,7.53
2018-06-15T06:02:39.068Z,7.97
2018-06-15T06:05:06.065Z,7.37
2018-06-15T06:07:38.471Z,7.60
2018-06-15T06:10:11.957Z,7.27
2018-06-15T06:12:39.053Z,7.87
2018-06-15T06:15:06.146Z,7.70
2018-06-15T06:17:33.142Z,7.57
2018-06-15T06:20:00.213Z,7.63
2018-06-15T06:22:28.958Z,7.90
2018-06-15T06:24:56.078Z,7.07
2018-06-15T06:27:23.166Z,7.80
2018-06-15T06:29:50.159Z,7.83
2018-06-15T06:32:21.740Z,7.07
2018-06-15T06:34:50.622Z,7.30
2018-06-15T06:37:18.880Z,8.53
2018-06-15T06:39:50.629Z,7.80
2018-06-15T06:42:29.023Z,7.57
2018-06-15T06:44:56.850Z,8.90
2018-06-15T06:47:23.840Z,8.00
2018-06-15T06:49:50.839Z,8.27
2018-06-15T06:52:17.842Z,8.37
2018-06-15T06:54:44.882Z,8.97
2018-06-15T06:57:11.853Z,9.03
2018-06-15T06:59:38.878Z,9.07
2018-06-15T07:02:05.878Z,9.60
2018-06-15T07:04:32.865Z,8.17
2018-06-15T07:06:59.868Z,9.23
2018-06-15T07:09:26.861Z,8.80
2018-06-15T07:11:53.874Z,9.63
2018-06-15T07:14:20.861Z,10.00
2018-06-15T07:16:47.845Z,10.10
2018-06-15T07:19:19.288Z,10.70
2018-06-15T07:21:53.776Z,12.17
2018-06-15T07:24:24.769Z,10.90
2018-06-15T07:26:51.774Z,11.87
2018-06-15T07:29:18.792Z,11.57
2018-06-15T07:31:45.886Z,13.27
2018-06-15T07:34:12.917Z,13.10
2018-06-15T07:36:40.044Z,11.43
2018-06-15T07:39:08.193Z,11.90
2018-06-15T07:41:35.182Z,11.60
2018-06-15T07:44:02.183Z,11.57
2018-06-15T07:46:29.233Z,12.20
2018-06-15T07:48:56.243Z,11.27
2018-06-15T07:51:23.229Z,12.53
2018-06-15T07:53:50.249Z,13.40
2018-06-15T07:56:17.258Z,13.57
2018-06-15T07:58:44.252Z,13.20
2018-06-15T08:01:11.254Z,14.13
2018-06-15T08:03:38.283Z,14.77
2018-06-15T08:06:05.239Z,14.70
2018-06-15T08:08:32.234Z,14.87
2018-06-15T08:10:59.238Z,12.80
2018-06-15T08:13:26.226Z,14.87
2018-06-15T08:15:53.266Z,14.43
2018-06-15T08:18:20.235Z,13.00
2018-06-15T08:20:47.217Z,12.27
2018-06-15T08:23:14.210Z,12.90
2018-06-15T08:25:41.266Z,12.60
2018-06-15T08:28:08.252Z,16.77
2018-06-15T08:30:35.242Z,13.90
2018-06-15T08:33:02.247Z,13.17
2018-06-15T08:35:29.239Z,13.87
2018-06-15T08:37:56.227Z,13.57
2018-06-15T08:40:23.236Z,13.77
2018-06-15T08:42:50.229Z,14.07
2018-06-15T08:45:17.225Z,12.03
2018-06-15T08:47:44.249Z,13.50
2018-06-15T08:50:11.242Z,13.70
2018-06-15T08:52:38.234Z,14.10
2018-06-15T08:55:05.239Z,14.10
2018-06-15T08:57:32.221Z,13.57
2018-06-15T08:59:59.214Z,13.13
2018-06-15T09:02:26.218Z,13.00
2018-06-15T09:04:53.250Z,11.80
2018-06-15T09:07:20.245Z,9.70
2018-06-15T09:09:47.218Z,9.93
2018-06-15T09:12:14.246Z,11.70
2018-06-15T09:14:41.226Z,11.60
2018-06-15T09:17:08.226Z,10.33
2018-06-15T09:19:35.221Z,10.23
2018-06-15T09:22:02.294Z,9.93
2018-06-15T09:24:29.290Z,9.13
2018-06-15T09:26:56.289Z,10.40
2018-06-15T09:29:23.277Z,10.07
2018-06-15T09:31:50.280Z,8.80
2018-06-15T09:34:17.273Z,8.90
2018-06-15T09:36:44.284Z,8.90
2018-06-15T09:39:11.705Z,8.50
2018-06-15T09:41:39.226Z,8.70
2018-06-15T09:44:06.229Z,7.37
2018-06-15T09:46:33.262Z,7.83
2018-06-15T09:49:00.253Z,7.10
2018-06-15T09:51:27.277Z,6.87
2018-06-15T09:53:54.322Z,7.90
2018-06-15T09:56:21.269Z,8.20
2018-06-15T09:58:52.302Z,8.10
2018-06-15T10:01:19.306Z,5.53
2018-06-15T10:03:46.354Z,5.50
2018-06-15T10:06:13.413Z,6.80
2018-06-15T10:08:40.370Z,6.13
2018-06-15T10:11:07.392Z,7.03
2018-06-15T10:13:34.405Z,8.00
2018-06-15T10:16:01.410Z,8.87
2018-06-15T10:18:28.409Z,8.60
2018-06-15T10:20:55.401Z,9.93
2018-06-15T10:23:22.430Z,8.10
2018-06-15T10:25:49.439Z,8.13
2018-06-15T10:28:16.459Z,7.70
2018-06-15T10:30:43.473Z,7.80
2018-06-15T10:33:10.561Z,8.30
2018-06-15T10:35:37.637Z,8.20
2018-06-15T10:38:04.616Z,7.80
2018-06-15T10:40:31.610Z,6.97
2018-06-15T10:42:58.633Z,7.13
2018-06-15T10:45:25.646Z,7.53
2018-06-15T10:47:52.646Z,6.30
2018-06-15T10:50:19.665Z,6.57
2018-06-15T10:52:46.674Z,5.70
2018-06-15T10:55:13.686Z,6.03
2018-06-15T10:57:40.682Z,5.60
2018-06-15T11:00:07.718Z,6.07
2018-06-15T11:02:34.737Z,5.80
2018-06-15T11:05:01.755Z,6.03
2018-06-15T11:07:28.768Z,5.10
2018-06-15T11:09:55.838Z,6.27
2018-06-15T11:12:22.846Z,5.17
2018-06-15T11:14:49.888Z,4.97
2018-06-15T11:17:16.903Z,4.40
2018-06-15T11:19:43.933Z,4.40
2018-06-15T11:22:11.002Z,6.10
2018-06-15T11:24:38.127Z,5.23
2018-06-15T11:27:05.138Z,5.97
2018-06-15T11:29:32.457Z,5.10
2018-06-15T11:31:59.477Z,4.00
2018-06-15T11:34:26.489Z,4.23
2018-06-15T11:36:53.505Z,4.80
2018-06-15T11:39:20.516Z,5.23
2018-06-15T11:41:47.535Z,4.50
2018-06-15T11:44:14.545Z,4.20
2018-06-15T11:46:41.658Z,4.03
2018-06-15T11:49:08.683Z,4.43
2018-06-15T11:51:35.753Z,4.63
2018-06-15T11:54:02.811Z,4.60
2018-06-15T11:56:30.521Z,4.40
2018-06-15T11:58:57.550Z,4.10
2018-06-15T12:01:24.561Z,4.20
2018-06-15T12:03:51.594Z,5.07
2018-06-15T12:06:18.629Z,4.50
2018-06-15T12:08:45.646Z,4.33
2018-06-15T12:11:12.667Z,4.63
2018-06-15T12:13:39.695Z,4.90
2018-06-15T12:16:06.729Z,5.63
2018-06-15T12:18:33.759Z,4.70
2018-06-15T12:21:00.769Z,5.20
2018-06-15T12:23:27.806Z,5.17
2018-06-15T12:25:54.813Z,4.73
2018-06-15T12:28:21.841Z,4.60
2018-06-15T12:30:48.875Z,5.00
2018-06-15T12:33:15.882Z,4.90
2018-06-15T12:35:42.889Z,4.37
2018-06-15T12:38:09.901Z,4.53
2018-06-15T12:40:36.919Z,5.17
2018-06-15T12:43:03.965Z,4.40
2018-06-15T12:45:30.962Z,5.50
2018-06-15T12:47:57.982Z,4.90
2018-06-15T12:50:25.007Z,4.97
2018-06-15T12:52:52.021Z,5.60
2018-06-15T12:55:19.055Z,4.67
2018-06-15T12:57:46.053Z,4.87
2018-06-15T13:00:13.073Z,4.70
2018-06-15T13:02:40.137Z,5.03
2018-06-15T13:05:07.230Z,5.30
2018-06-15T13:07:34.258Z,4.73
2018-06-15T13:10:01.283Z,4.23
2018-06-15T13:12:28.681Z,4.50
2018-06-15T13:14:55.737Z,5.63
2018-06-15T13:17:22.745Z,4.37
2018-06-15T13:19:49.781Z,4.30
2018-06-15T13:22:16.863Z,4.40
2018-06-15T13:24:44.418Z,5.23
2018-06-15T13:27:11.482Z,4.73
2018-06-15T13:29:38.494Z,5.03
2018-06-15T13:32:05.533Z,4.50
2018-06-15T13:34:32.537Z,5.40
2018-06-15T13:36:59.533Z,4.77
2018-06-15T13:39:26.552Z,5.47
2018-06-15T13:41:53.574Z,5.53
2018-06-15T13:44:20.633Z,4.63
2018-06-15T13:46:47.651Z,4.80
2018-06-15T13:49:14.705Z,4.97
2018-06-15T13:51:41.733Z,4.87
2018-06-15T13:54:09.454Z,5.30
2018-06-15T13:56:36.485Z,4.63
2018-06-15T13:59:03.755Z,5.40
2018-06-15T14:01:32.962Z,5.60
2018-06-15T14:03:59.982Z,5.90
2018-06-15T14:06:27.640Z,5.80
2018-06-15T14:08:54.758Z,5.80
2018-06-15T14:11:21.787Z,5.30
2018-06-15T14:13:48.797Z,5.20
2018-06-15T14:16:15.905Z,5.73
2018-06-15T14:18:42.914Z,5.60
2018-06-15T14:21:09.945Z,5.43
2018-06-15T14:23:36.960Z,5.80
2018-06-15T14:26:03.981Z,5.30
2018-06-15T14:28:31.010Z,4.60
2018-06-15T14:30:58.050Z,5.37
2018-06-15T14:33:25.206Z,5.53
2018-06-15T14:35:52.202Z,5.03
2018-06-15T14:38:20.248Z,5.03
2018-06-15T14:40:47.331Z,6.07
2018-06-15T14:43:14.341Z,6.40
2018-06-15T14:45:42.510Z,6.47
2018-06-15T14:48:09.514Z,6.80
2018-06-15T14:50:36.549Z,6.23
2018-06-15T14:53:03.587Z,6.20
2018-06-15T14:55:30.594Z,6.90
2018-06-15T14:57:57.579Z,6.20
2018-06-15T15:00:24.598Z,6.30
2018-06-15T15:02:51.618Z,6.77
2018-06-15T15:05:19.360Z,6.10
2018-06-15T15:07:46.429Z,6.33
2018-06-15T15:10:13.542Z,6.37
2018-06-15T15:12:40.669Z,5.40
2018-06-15T15:15:07.722Z,35.50
2018-06-15T15:17:34.773Z,8.67
2018-06-15T15:20:01.798Z,5.93
2018-06-15T15:22:28.852Z,5.77
2018-06-15T15:24:55.898Z,5.30
2018-06-15T15:27:22.918Z,5.97
2018-06-15T15:29:49.929Z,6.40
2018-06-15T15:32:19.182Z,5.97
2018-06-15T15:34:46.206Z,5.50
2018-06-15T15:37:13.257Z,5.93
2018-06-15T15:39:44.222Z,6.17
2018-06-15T15:42:11.417Z,5.80
2018-06-15T15:44:39.134Z,5.53
2018-06-15T15:47:06.149Z,5.70
2018-06-15T15:49:33.157Z,6.07
2018-06-15T15:52:00.182Z,5.90
2018-06-15T15:54:27.185Z,5.93
2018-06-15T15:56:54.197Z,5.90
2018-06-15T15:59:21.212Z,5.50
2018-06-15T16:01:48.222Z,5.90
2018-06-15T16:04:15.218Z,5.60
2018-06-15T16:06:42.229Z,5.60
2018-06-15T16:09:09.769Z,6.10
2018-06-15T16:11:36.758Z,5.40
2018-06-15T16:14:04.141Z,6.10
2018-06-15T16:16:31.134Z,5.90
2018-06-15T16:18:58.128Z,6.27
2018-06-15T16:21:25.125Z,5.70
2018-06-15T16:23:52.154Z,6.27
2018-06-15T16:26:19.163Z,5.43
2018-06-15T16:28:46.194Z,5.60
2018-06-15T16:31:13.191Z,5.60
2018-06-15T16:33:40.214Z,5.43
2018-06-15T16:36:07.215Z,5.20
2018-06-15T16:38:34.274Z,5.67
2018-06-15T16:41:01.272Z,5.97
2018-06-15T16:43:28.359Z,5.90
2018-06-15T16:45:55.298Z,6.00
2018-06-15T16:48:22.342Z,5.80
2018-06-15T16:50:49.340Z,5.87
2018-06-15T16:53:16.334Z,6.00
2018-06-15T16:55:43.361Z,5.20
2018-06-15T16:58:10.362Z,5.77
2018-06-15T17:00:37.374Z,5.30
2018-06-15T17:03:04.391Z,6.10
2018-06-15T17:05:31.430Z,5.60
2018-06-15T17:07:58.430Z,5.87
2018-06-15T17:10:25.454Z,6.70
2018-06-15T17:12:52.462Z,5.70
2018-06-15T17:15:19.473Z,6.00
2018-06-15T17:17:46.492Z,5.53
2018-06-15T17:20:13.502Z,5.83
2018-06-15T17:22:40.522Z,5.57
2018-06-15T17:25:07.547Z,5.70
2018-06-15T17:27:34.579Z,6.10
2018-06-15T17:30:01.591Z,5.47
2018-06-15T17:32:28.617Z,5.20
2018-06-15T17:34:55.629Z,6.10
2018-06-15T17:37:22.630Z,5.67
2018-06-15T17:39:49.625Z,5.80
2018-06-15T17:42:16.634Z,6.10
2018-06-15T17:44:43.617Z,5.50
2018-06-15T17:47:10.622Z,6.17
2018-06-15T17:49:37.620Z,5.90
2018-06-15T17:52:04.963Z,6.43
2018-06-15T17:54:31.961Z,6.27
2018-06-15T17:56:58.979Z,6.57
2018-06-15T17:59:26.057Z,5.67
2018-06-15T18:01:53.033Z,6.53
2018-06-15T18:04:20.016Z,6.10
2018-06-15T18:06:47.049Z,6.20
2018-06-15T18:09:14.066Z,5.90
2018-06-15T18:11:41.073Z,6.10
2018-06-15T18:14:08.118Z,6.93
2018-06-15T18:16:35.435Z,7.30
2018-06-15T18:19:02.446Z,6.13
2018-06-15T18:21:29.506Z,5.93
2018-06-15T18:23:56.472Z,6.63
2018-06-15T18:26:23.474Z,6.23
2018-06-15T18:28:50.486Z,6.80
2018-06-15T18:31:17.494Z,6.43
2018-06-15T18:36:18.267Z,6.50
2018-06-15T18:38:45.246Z,6.10
2018-06-15T18:41:12.252Z,6.03
2018-06-15T18:43:39.272Z,7.13
2018-06-15T18:46:06.301Z,7.00
2018-06-15T18:48:33.322Z,8.87
2018-06-15T18:51:00.418Z,9.53
2018-06-15T18:53:27.449Z,8.20
2018-06-15T18:55:54.478Z,8.90
2018-06-15T18:58:21.494Z,8.63
2018-06-15T19:00:48.547Z,8.67
2018-06-15T19:03:15.665Z,8.90
2018-06-15T19:05:42.866Z,9.17
2018-06-15T19:08:09.869Z,9.03
2018-06-15T19:10:36.925Z,9.67
2018-06-15T19:13:04.081Z,9.40
2018-06-15T19:15:31.106Z,9.00
2018-06-15T19:17:58.939Z,8.60
2018-06-15T19:20:26.039Z,8.93
2018-06-15T19:22:53.132Z,9.57
2018-06-15T19:25:20.121Z,9.73
2018-06-15T19:27:48.765Z,9.30
2018-06-15T19:30:17.925Z,9.37
2018-06-15T19:32:44.901Z,9.97
2018-06-15T19:35:11.906Z,9.50
2018-06-15T19:37:38.897Z,9.97
2018-06-15T19:40:05.881Z,9.30
2018-06-15T19:42:32.886Z,11.00
2018-06-15T19:44:59.877Z,10.00
2018-06-15T19:47:26.874Z,11.00
2018-06-15T19:49:53.846Z,9.90
2018-06-15T19:52:21.023Z,9.67
2018-06-15T19:54:48.048Z,10.27
2018-06-15T19:57:15.037Z,9.60
2018-06-15T19:59:42.061Z,10.90
2018-06-15T20:02:09.138Z,10.27
2018-06-15T20:04:36.117Z,10.80
2018-06-15T20:07:03.106Z,9.60
2018-06-15T20:09:30.090Z,10.90
2018-06-15T20:11:57.132Z,10.60
2018-06-15T20:14:24.106Z,9.57
2018-06-15T20:16:51.110Z,10.50
2018-06-15T20:19:18.089Z,11.17
2018-06-15T20:21:45.078Z,11.43
2018-06-15T20:24:12.072Z,10.60
2018-06-15T20:26:39.074Z,11.70
2018-06-15T20:29:06.073Z,11.23
2018-06-15T20:31:33.057Z,11.70
2018-06-15T20:34:00.070Z,12.83
2018-06-15T20:36:27.115Z,13.07
2018-06-15T20:38:54.103Z,10.73
2018-06-15T20:41:21.091Z,10.33
2018-06-15T20:43:48.103Z,11.10
2018-06-15T20:46:15.150Z,11.30
2018-06-15T20:48:42.146Z,10.20
2018-06-15T20:51:09.149Z,10.50
2018-06-15T20:53:36.152Z,10.13
2018-06-15T20:56:03.129Z,9.90
2018-06-15T20:58:30.129Z,9.30
2018-06-15T21:00:57.106Z,10.07
2018-06-15T21:03:24.114Z,11.10
2018-06-15T21:05:51.094Z,10.20
2018-06-15T21:08:18.102Z,9.70
2018-06-15T21:10:45.086Z,9.80
2018-06-15T21:13:12.085Z,9.90
2018-06-15T21:15:39.093Z,11.33
2018-06-15T21:20:39.825Z,11.20
2018-06-15T21:23:06.810Z,11.20
2018-06-15T21:25:33.814Z,10.30
2018-06-15T21:28:00.817Z,11.77
2018-06-15T21:30:27.805Z,10.97
2018-06-15T21:32:54.797Z,12.30
2018-06-15T21:35:21.809Z,11.40
2018-06-15T21:37:48.801Z,12.73
2018-06-15T21:40:15.806Z,12.37
2018-06-15T21:42:42.818Z,13.20
2018-06-15T21:45:09.805Z,12.07
2018-06-15T21:47:36.790Z,11.43
2018-06-15T21:50:03.803Z,10.40
2018-06-15T21:52:30.792Z,11.43
2018-06-15T21:54:57.805Z,11.10
2018-06-15T21:57:24.814Z,12.60
2018-06-15T21:59:51.824Z,12.00
2018-06-15T22:02:18.827Z,12.50
2018-06-15T22:04:45.821Z,11.67
2018-06-15T22:07:12.827Z,10.80
2018-06-15T22:09:39.829Z,10.70
2018-06-15T22:12:06.818Z,12.33
2018-06-15T22:14:33.810Z,11.10
2018-06-15T22:17:00.810Z,11.60
2018-06-15T22:19:27.806Z,10.07
2018-06-15T22:21:54.813Z,10.90
2018-06-15T22:24:22.653Z,10.67
2018-06-15T22:26:49.669Z,11.23
2018-06-15T22:29:16.954Z,10.37
2018-06-15T22:31:43.941Z,10.13
2018-06-15T22:34:10.929Z,12.07
2018-06-15T22:36:37.997Z,11.10
2018-06-15T22:39:07.457Z,11.10
2018-06-15T22:41:34.450Z,11.93
2018-06-15T22:44:01.442Z,10.83
2018-06-15T22:46:29.273Z,11.97
2018-06-15T22:48:56.274Z,11.00
2018-06-15T22:51:23.365Z,12.23
2018-06-15T22:53:50.353Z,12.10
2018-06-15T22:56:17.362Z,11.60
2018-06-15T22:58:44.357Z,12.70
2018-06-15T23:01:11.374Z,12.57
2018-06-15T23:03:38.401Z,11.77
2018-06-15T23:06:15.323Z,12.30
2018-06-15T23:08:42.352Z,12.27
2018-06-15T23:11:09.393Z,13.53
2018-06-15T23:13:36.409Z,12.37
2018-06-15T23:16:03.464Z,11.80
2018-06-15T23:18:30.650Z,11.50
2018-06-15T23:20:57.673Z,12.27
2018-06-15T23:23:24.753Z,13.03
2018-06-15T23:25:52.653Z,12.40
2018-06-15T23:28:19.689Z,12.30
2018-06-15T23:30:46.677Z,13.50
2018-06-15T23:33:13.682Z,12.43
2018-06-15T23:35:40.726Z,12.20
2018-06-15T23:38:07.734Z,12.87
2018-06-15T23:40:34.729Z,12.87
2018-06-15T23:43:01.709Z,12.40
2018-06-15T23:45:28.718Z,13.27
2018-06-15T23:47:55.718Z,13.23
2018-06-15T23:50:22.750Z,13.07
2018-06-15T23:52:50.001Z,12.17
2018-06-15T23:55:17.002Z,12.87
2018-06-15T23:57:43.993Z,12.20
